createdAt,value
2023-11-30T00:00:23.979Z,19.80
2023-11-30T00:01:23.979Z,21.50
2023-11-30T00:02:23.911Z,21.40
2023-11-30T00:03:23.948Z,20.90
2023-11-30T00:04:23.827Z,21.70
2023-11-30T00:05:23.994Z,21.50
2023-11-30T00:06:23.829Z,20.90
2023-11-30T00:07:23.742Z,20.60
2023-11-30T00:08:23.717Z,22.30
2023-11-30T00:09:23.730Z,21.60
2023-11-30T00:10:23.673Z,22.10
2023-11-30T00:11:23.622Z,23.80
2023-11-30T00:12:23.676Z,24.70
2023-11-30T00:13:23.568Z,23.10
2023-11-30T00:14:23.544Z,23.70
2023-11-30T00:15:23.536Z,24.60
2023-11-30T00:16:23.553Z,25.30
2023-11-30T00:17:23.458Z,24.20
2023-11-30T00:18:23.489Z,25.60
2023-11-30T00:19:23.420Z,25.10
2023-11-30T00:20:23.391Z,25.00
2023-11-30T00:21:23.371Z,24.30
2023-11-30T00:22:23.305Z,24.10
2023-11-30T00:23:23.273Z,23.80
2023-11-30T00:24:23.339Z,24.90
2023-11-30T00:25:23.226Z,25.40
2023-11-30T00:26:23.204Z,26.40
2023-11-30T00:27:23.200Z,25.90
2023-11-30T00:28:23.152Z,26.60
2023-11-30T00:29:23.112Z,26.50
2023-11-30T00:30:23.115Z,25.10
2023-11-30T00:31:23.098Z,26.20
2023-11-30T00:32:23.032Z,25.60
2023-11-30T00:33:23.074Z,24.20
2023-11-30T00:34:22.956Z,23.40
2023-11-30T00:35:22.946Z,24.00
2023-11-30T00:36:22.968Z,22.10
2023-11-30T00:37:22.877Z,21.80
2023-11-30T00:38:22.839Z,21.20
2023-11-30T00:39:22.847Z,20.20
2023-11-30T00:40:22.794Z,20.70
2023-11-30T00:41:22.779Z,21.00
2023-11-30T00:42:23.003Z,21.30
2023-11-30T00:43:22.691Z,19.40
2023-11-30T00:44:22.800Z,19.00
2023-11-30T00:45:22.675Z,18.80
2023-11-30T00:46:22.629Z,17.90
2023-11-30T00:47:22.572Z,19.10
2023-11-30T00:48:22.644Z,18.20
2023-11-30T00:49:22.522Z,18.80
2023-11-30T00:50:22.517Z,19.60
2023-11-30T00:51:22.544Z,18.20
2023-11-30T00:52:22.443Z,20.70
2023-11-30T00:53:22.406Z,18.60
2023-11-30T00:54:22.435Z,18.80
2023-11-30T00:55:22.340Z,18.40
2023-11-30T00:56:22.317Z,18.40
2023-11-30T00:57:22.303Z,18.70
2023-11-30T00:58:22.268Z,18.10
2023-11-30T00:59:22.378Z,17.80
2023-11-30T01:00:22.268Z,17.70
2023-11-30T01:01:22.267Z,17.10
2023-11-30T01:02:22.187Z,16.60
2023-11-30T01:03:22.267Z,17.80
2023-11-30T01:04:22.265Z,17.50
2023-11-30T01:05:22.052Z,17.10
2023-11-30T01:06:22.045Z,16.60
2023-11-30T01:07:22.009Z,16.50
2023-11-30T01:08:21.976Z,17.70
2023-11-30T01:09:21.986Z,16.50
2023-11-30T01:10:21.899Z,15.80
2023-11-30T01:11:21.882Z,16.10
2023-11-30T01:12:21.924Z,16.40
2023-11-30T01:13:21.814Z,16.60
2023-11-30T01:14:21.785Z,16.30
2023-11-30T01:15:21.795Z,16.60
2023-11-30T01:16:21.762Z,17.20
2023-11-30T01:17:21.743Z,17.00
2023-11-30T01:18:21.725Z,16.90
2023-11-30T01:19:21.635Z,18.00
2023-11-30T01:20:21.607Z,17.50
2023-11-30T01:21:21.627Z,17.00
2023-11-30T01:22:21.553Z,17.20
2023-11-30T01:23:21.545Z,15.60
2023-11-30T01:24:21.516Z,15.90
2023-11-30T01:25:21.501Z,16.30
2023-11-30T01:26:21.446Z,15.30
2023-11-30T01:27:21.477Z,15.90
2023-11-30T01:28:21.381Z,16.30
2023-11-30T01:29:21.346Z,16.00
2023-11-30T01:30:21.364Z,16.80
2023-11-30T01:31:21.380Z,16.60
2023-11-30T01:32:21.256Z,17.80
2023-11-30T01:33:21.371Z,17.50
2023-11-30T01:34:21.196Z,15.70
2023-11-30T01:35:21.183Z,16.70
2023-11-30T01:36:21.199Z,17.40
2023-11-30T01:37:21.120Z,17.10
2023-11-30T01:38:21.080Z,16.50
2023-11-30T01:39:21.103Z,16.70
2023-11-30T01:40:21.028Z,16.80
2023-11-30T01:41:20.999Z,17.00
2023-11-30T01:42:20.990Z,16.40
2023-11-30T01:43:20.942Z,16.70
2023-11-30T01:44:20.917Z,17.40
2023-11-30T01:45:20.931Z,16.50
2023-11-30T01:46:20.861Z,17.10
2023-11-30T01:47:20.820Z,16.00
2023-11-30T01:48:20.829Z,16.60
2023-11-30T01:49:20.766Z,16.00
2023-11-30T01:50:20.739Z,17.60
2023-11-30T01:51:20.733Z,17.30
2023-11-30T01:52:20.669Z,18.50
2023-11-30T01:53:20.650Z,16.90
2023-11-30T01:54:20.636Z,17.00
2023-11-30T01:55:20.601Z,18.30
2023-11-30T01:56:20.553Z,16.90
2023-11-30T01:57:20.553Z,17.10
2023-11-30T01:58:20.495Z,18.20
2023-11-30T01:59:20.464Z,17.20
2023-11-30T02:00:20.537Z,17.00
2023-11-30T02:01:20.416Z,18.00
2023-11-30T02:02:20.419Z,18.30
2023-11-30T02:03:22.656Z,19.00
2023-11-30T02:04:20.381Z,17.80
2023-11-30T02:05:20.291Z,17.00
2023-11-30T02:06:20.421Z,16.90
2023-11-30T02:07:20.226Z,18.80
2023-11-30T02:08:20.199Z,17.80
2023-11-30T02:09:20.209Z,17.60
2023-11-30T02:10:20.138Z,18.40
2023-11-30T02:11:20.150Z,17.80
2023-11-30T02:12:20.101Z,17.90
2023-11-30T02:13:20.052Z,17.10
2023-11-30T02:14:20.024Z,17.10
2023-11-30T02:15:20.010Z,17.30
2023-11-30T02:16:20.020Z,17.20
2023-11-30T02:17:19.937Z,17.80
2023-11-30T02:18:19.983Z,18.10
2023-11-30T02:19:19.881Z,18.50
2023-11-30T02:20:19.848Z,19.00
2023-11-30T02:21:19.863Z,18.40
2023-11-30T02:22:19.790Z,17.30
2023-11-30T02:23:19.782Z,18.40
2023-11-30T02:24:19.838Z,18.60
2023-11-30T02:25:19.706Z,19.50
2023-11-30T02:26:19.672Z,18.80
2023-11-30T02:27:19.686Z,18.80
2023-11-30T02:28:19.611Z,18.30
2023-11-30T02:29:19.588Z,17.60
2023-11-30T02:30:19.623Z,18.80
2023-11-30T02:31:19.538Z,19.30
2023-11-30T02:32:19.494Z,18.70
2023-11-30T02:33:19.860Z,19.50
2023-11-30T02:34:19.457Z,19.20
2023-11-30T02:35:19.418Z,18.20
2023-11-30T02:36:19.586Z,18.20
2023-11-30T02:37:19.352Z,18.40
2023-11-30T02:38:19.323Z,18.50
2023-11-30T02:39:19.315Z,18.80
2023-11-30T02:40:19.264Z,17.60
2023-11-30T02:41:19.235Z,19.40
2023-11-30T02:42:19.241Z,18.90
2023-11-30T02:43:19.217Z,18.20
2023-11-30T02:44:19.142Z,18.80
2023-11-30T02:45:19.163Z,19.30
2023-11-30T02:46:19.127Z,19.10
2023-11-30T02:47:19.073Z,19.60
2023-11-30T02:48:19.130Z,19.70
2023-11-30T02:49:18.999Z,20.10
2023-11-30T02:50:18.968Z,20.00
2023-11-30T02:51:19.027Z,19.60
2023-11-30T02:52:18.930Z,20.60
2023-11-30T02:53:18.902Z,19.60
2023-11-30T02:54:18.993Z,19.40
2023-11-30T02:55:18.837Z,18.70
2023-11-30T02:56:18.793Z,19.70
2023-11-30T02:57:18.771Z,20.30
2023-11-30T02:58:18.742Z,19.80
2023-11-30T02:59:18.727Z,20.30
2023-11-30T03:00:18.713Z,20.90
2023-11-30T03:01:18.690Z,20.60
2023-11-30T03:02:18.706Z,20.40
2023-11-30T03:03:18.676Z,20.70
2023-11-30T03:04:18.594Z,21.10
2023-11-30T03:05:18.544Z,21.30
2023-11-30T03:06:18.538Z,21.00
2023-11-30T03:07:18.472Z,20.60
2023-11-30T03:08:18.436Z,20.80
2023-11-30T03:09:18.487Z,21.30
2023-11-30T03:10:19.816Z,21.80
2023-11-30T03:11:18.358Z,22.10
2023-11-30T03:12:18.370Z,21.80
2023-11-30T03:13:18.318Z,22.60
2023-11-30T03:14:18.264Z,22.10
2023-11-30T03:15:18.298Z,23.70
2023-11-30T03:16:18.250Z,22.80
2023-11-30T03:17:18.188Z,22.90
2023-11-30T03:18:18.194Z,22.30
2023-11-30T03:19:18.246Z,21.80
2023-11-30T03:20:18.085Z,22.30
2023-11-30T03:21:18.139Z,23.40
2023-11-30T03:22:18.032Z,21.90
2023-11-30T03:23:18.005Z,21.80
2023-11-30T03:24:18.046Z,22.30
2023-11-30T03:25:17.947Z,22.20
2023-11-30T03:26:17.916Z,23.80
2023-11-30T03:27:17.924Z,22.30
2023-11-30T03:28:17.856Z,22.60
2023-11-30T03:29:17.840Z,23.70
2023-11-30T03:30:17.842Z,23.10
2023-11-30T03:31:17.812Z,22.90
2023-11-30T03:32:17.738Z,22.70
2023-11-30T03:33:17.737Z,22.60
2023-11-30T03:34:17.684Z,24.00
2023-11-30T03:35:17.660Z,23.40
2023-11-30T03:36:17.692Z,23.90
2023-11-30T03:37:17.650Z,24.80
2023-11-30T03:38:17.570Z,23.80
2023-11-30T03:39:17.555Z,24.00
2023-11-30T03:40:17.515Z,24.50
2023-11-30T03:41:17.484Z,24.40
2023-11-30T03:42:17.493Z,23.20
2023-11-30T03:43:17.420Z,24.20
2023-11-30T03:44:17.390Z,23.40
2023-11-30T03:45:17.453Z,22.20
2023-11-30T03:46:17.392Z,24.70
2023-11-30T03:47:17.347Z,25.60
2023-11-30T03:48:17.338Z,24.60
2023-11-30T03:49:17.243Z,25.90
2023-11-30T03:50:17.234Z,23.30
2023-11-30T03:51:17.223Z,24.10
2023-11-30T03:52:17.153Z,25.40
2023-11-30T03:53:17.124Z,23.10
2023-11-30T03:54:17.144Z,25.00
2023-11-30T03:55:17.069Z,23.90
2023-11-30T03:56:17.041Z,25.70
2023-11-30T03:57:17.038Z,23.30
2023-11-30T03:58:16.984Z,24.40
2023-11-30T03:59:16.963Z,25.20
2023-11-30T04:00:16.937Z,25.40
2023-11-30T04:01:16.893Z,25.60
2023-11-30T04:02:17.007Z,24.70
2023-11-30T04:03:16.884Z,25.70
2023-11-30T04:04:16.906Z,25.80
2023-11-30T04:05:16.803Z,24.70
2023-11-30T04:06:16.759Z,25.90
2023-11-30T04:07:16.726Z,26.60
2023-11-30T04:08:16.684Z,27.50
2023-11-30T04:09:19.086Z,27.20
2023-11-30T04:10:16.632Z,27.10
2023-11-30T04:11:16.601Z,26.20
2023-11-30T04:12:16.614Z,25.50
2023-11-30T04:13:16.542Z,28.00
2023-11-30T04:14:16.516Z,26.30
2023-11-30T04:15:16.527Z,27.40
2023-11-30T04:16:16.557Z,27.70
2023-11-30T04:17:16.425Z,27.00
2023-11-30T04:18:16.504Z,26.90
2023-11-30T04:19:16.396Z,26.70
2023-11-30T04:20:16.340Z,27.40
2023-11-30T04:21:16.343Z,28.60
2023-11-30T04:22:16.278Z,27.50
2023-11-30T04:23:16.245Z,28.10
2023-11-30T04:24:16.265Z,27.70
2023-11-30T04:25:16.198Z,28.70
2023-11-30T04:26:16.157Z,27.70
2023-11-30T04:27:16.166Z,26.00
2023-11-30T04:28:16.102Z,28.60
2023-11-30T04:29:16.082Z,28.20
2023-11-30T04:30:16.066Z,28.30
2023-11-30T04:31:16.037Z,27.80
2023-11-30T04:32:15.984Z,27.70
2023-11-30T04:33:15.983Z,27.10
2023-11-30T04:34:15.923Z,29.40
2023-11-30T04:35:15.915Z,28.00
2023-11-30T04:36:15.892Z,27.10
2023-11-30T04:37:15.840Z,28.80
2023-11-30T04:38:15.808Z,29.70
2023-11-30T04:39:15.828Z,27.00
2023-11-30T04:40:15.762Z,27.70
2023-11-30T04:41:15.726Z,26.90
2023-11-30T04:42:15.705Z,30.00
2023-11-30T04:43:15.669Z,29.80
2023-11-30T04:44:15.632Z,28.60
2023-11-30T04:45:15.665Z,28.20
2023-11-30T04:46:15.655Z,28.80
2023-11-30T04:47:15.549Z,29.10
2023-11-30T04:48:15.582Z,28.90
2023-11-30T04:49:15.514Z,30.40
2023-11-30T04:50:15.461Z,30.00
2023-11-30T04:51:15.492Z,30.60
2023-11-30T04:52:15.399Z,31.40
2023-11-30T04:53:15.379Z,30.80
2023-11-30T04:54:15.349Z,29.10
2023-11-30T04:55:15.310Z,30.20
2023-11-30T04:56:15.276Z,28.70
2023-11-30T04:57:15.297Z,30.70
2023-11-30T04:58:15.226Z,30.20
2023-11-30T04:59:15.192Z,30.10
2023-11-30T05:00:15.189Z,30.50
2023-11-30T05:01:15.134Z,30.00
2023-11-30T05:02:15.265Z,30.40
2023-11-30T05:03:15.252Z,29.90
2023-11-30T05:04:15.225Z,30.80
2023-11-30T05:05:15.037Z,30.00
2023-11-30T05:06:15.044Z,30.70
2023-11-30T05:07:14.997Z,29.90
2023-11-30T05:08:14.970Z,31.30
2023-11-30T05:09:14.943Z,30.70
2023-11-30T05:10:14.875Z,30.80
2023-11-30T05:11:14.852Z,29.60
2023-11-30T05:12:14.844Z,30.30
2023-11-30T05:13:14.793Z,29.30
2023-11-30T05:14:14.764Z,29.20
2023-11-30T05:15:14.813Z,31.00
2023-11-30T05:16:14.700Z,29.60
2023-11-30T05:17:14.669Z,29.50
2023-11-30T05:18:14.718Z,30.00
2023-11-30T05:19:14.615Z,30.50
2023-11-30T05:20:14.594Z,30.20
2023-11-30T05:21:14.575Z,31.50
2023-11-30T05:22:14.548Z,30.60
2023-11-30T05:23:14.511Z,32.80
2023-11-30T05:24:14.494Z,31.20
2023-11-30T05:25:14.449Z,33.30
2023-11-30T05:26:14.408Z,31.90
2023-11-30T05:27:14.409Z,31.50
2023-11-30T05:28:14.359Z,31.40
2023-11-30T05:29:14.321Z,30.70
2023-11-30T05:30:14.368Z,32.20
2023-11-30T05:31:14.279Z,29.20
2023-11-30T05:32:14.246Z,31.50
2023-11-30T05:33:14.258Z,30.70
2023-11-30T05:34:14.180Z,31.10
2023-11-30T05:35:14.152Z,30.70
2023-11-30T05:36:14.144Z,29.00
2023-11-30T05:37:14.092Z,30.90
2023-11-30T05:38:14.061Z,28.70
2023-11-30T05:39:14.102Z,29.20
2023-11-30T05:40:14.005Z,30.00
2023-11-30T05:41:13.975Z,30.00
2023-11-30T05:42:13.980Z,31.30
2023-11-30T05:43:13.908Z,28.40
2023-11-30T05:44:13.899Z,29.80
2023-11-30T05:45:13.870Z,29.10
2023-11-30T05:46:13.838Z,29.70
2023-11-30T05:47:13.809Z,28.30
2023-11-30T05:48:13.867Z,30.40
2023-11-30T05:49:13.804Z,27.80
2023-11-30T05:50:13.806Z,29.40
2023-11-30T05:51:13.734Z,30.20
2023-11-30T05:52:13.667Z,29.20
2023-11-30T05:53:13.651Z,28.30
2023-11-30T05:54:13.647Z,27.60
2023-11-30T05:55:13.581Z,29.40
2023-11-30T05:56:13.544Z,28.80
2023-11-30T05:57:13.507Z,29.30
2023-11-30T05:58:13.473Z,29.00
2023-11-30T05:59:13.442Z,29.00
2023-11-30T06:00:13.454Z,27.90
2023-11-30T06:01:13.386Z,28.40
2023-11-30T06:02:13.407Z,28.80
2023-11-30T06:03:13.398Z,29.70
2023-11-30T06:04:13.405Z,28.30
2023-11-30T06:05:13.466Z,29.10
2023-11-30T06:06:13.280Z,28.60
2023-11-30T06:07:13.225Z,27.90
2023-11-30T06:08:13.199Z,29.90
2023-11-30T06:09:13.161Z,27.80
2023-11-30T06:10:13.133Z,28.50
2023-11-30T06:11:13.122Z,29.10
2023-11-30T06:12:13.090Z,26.80
2023-11-30T06:13:13.039Z,30.60
2023-11-30T06:14:13.013Z,31.90
2023-11-30T06:15:13.016Z,31.30
2023-11-30T06:16:12.979Z,32.30
2023-11-30T06:17:12.931Z,32.90
2023-11-30T06:18:12.899Z,36.10
2023-11-30T06:19:12.879Z,33.00
2023-11-30T06:20:12.841Z,32.80
2023-11-30T06:21:12.858Z,30.10
2023-11-30T06:22:12.783Z,31.50
2023-11-30T06:23:12.737Z,30.90
2023-11-30T06:24:12.804Z,29.90
2023-11-30T06:25:12.694Z,31.60
2023-11-30T06:26:12.666Z,31.20
2023-11-30T06:27:12.667Z,30.60
2023-11-30T06:28:12.620Z,31.60
2023-11-30T06:29:12.567Z,29.40
2023-11-30T06:30:12.582Z,30.60
2023-11-30T06:31:12.533Z,30.70
2023-11-30T06:32:12.494Z,29.30
2023-11-30T06:33:12.527Z,30.80
2023-11-30T06:34:12.424Z,29.40
2023-11-30T06:35:12.389Z,30.20
2023-11-30T06:36:12.405Z,30.80
2023-11-30T06:37:12.338Z,30.40
2023-11-30T06:38:12.339Z,30.50
2023-11-30T06:39:12.270Z,29.10
2023-11-30T06:40:12.263Z,30.00
2023-11-30T06:41:12.215Z,32.10
2023-11-30T06:42:12.208Z,32.40
2023-11-30T06:43:12.184Z,32.90
2023-11-30T06:44:12.131Z,30.80
2023-11-30T06:45:12.152Z,32.80
2023-11-30T06:46:12.073Z,31.20
2023-11-30T06:47:12.091Z,30.40
2023-11-30T06:48:12.227Z,31.10
2023-11-30T06:49:11.986Z,32.80
2023-11-30T06:50:11.958Z,31.90
2023-11-30T06:51:11.941Z,32.20
2023-11-30T06:52:11.902Z,33.00
2023-11-30T06:53:11.868Z,33.80
2023-11-30T06:54:11.896Z,32.60
2023-11-30T06:55:11.809Z,32.60
2023-11-30T06:56:11.776Z,33.90
2023-11-30T06:57:11.900Z,32.00
2023-11-30T06:58:11.716Z,32.70
2023-11-30T06:59:11.710Z,31.80
2023-11-30T07:00:11.716Z,34.00
2023-11-30T07:01:11.638Z,32.10
2023-11-30T07:02:11.641Z,33.20
2023-11-30T07:03:11.666Z,33.00
2023-11-30T07:04:11.660Z,33.90
2023-11-30T07:05:11.583Z,33.70
2023-11-30T07:06:11.548Z,32.20
2023-11-30T07:07:20.132Z,36.60
2023-11-30T07:08:11.426Z,34.10
2023-11-30T07:09:11.400Z,33.80
2023-11-30T07:10:11.365Z,32.40
2023-11-30T07:11:11.337Z,32.80
2023-11-30T07:12:12.879Z,32.80
2023-11-30T07:13:11.277Z,31.90
2023-11-30T07:14:11.250Z,31.90
2023-11-30T07:15:11.294Z,31.70
2023-11-30T07:16:11.236Z,33.20
2023-11-30T07:17:11.158Z,33.00
2023-11-30T07:18:11.210Z,33.80
2023-11-30T07:19:11.096Z,34.10
2023-11-30T07:20:11.079Z,34.40
2023-11-30T07:21:11.098Z,32.60
2023-11-30T07:22:11.011Z,33.30
2023-11-30T07:23:10.982Z,32.30
2023-11-30T07:24:13.234Z,32.30
2023-11-30T07:25:10.931Z,33.60
2023-11-30T07:26:10.906Z,33.80
2023-11-30T07:27:10.903Z,34.00
2023-11-30T07:28:10.836Z,33.50
2023-11-30T07:29:10.813Z,32.80
2023-11-30T07:30:10.877Z,32.60
2023-11-30T07:31:10.821Z,33.80
2023-11-30T07:32:10.729Z,33.50
2023-11-30T07:33:10.834Z,31.60
2023-11-30T07:34:10.673Z,31.30
2023-11-30T07:35:10.647Z,33.30
2023-11-30T07:36:12.645Z,35.30
2023-11-30T07:37:10.575Z,32.10
2023-11-30T07:38:10.551Z,34.50
2023-11-30T07:39:10.554Z,32.50
2023-11-30T07:40:10.500Z,33.00
2023-11-30T07:41:10.474Z,33.30
2023-11-30T07:42:10.464Z,31.70
2023-11-30T07:43:10.505Z,32.40
2023-11-30T07:44:10.377Z,33.10
2023-11-30T07:45:10.556Z,35.00
2023-11-30T07:46:10.357Z,31.10
2023-11-30T07:47:10.306Z,32.20
2023-11-30T07:48:10.373Z,32.00
2023-11-30T07:49:10.229Z,32.50
2023-11-30T07:50:10.199Z,32.30
2023-11-30T07:51:10.200Z,33.00
2023-11-30T07:52:10.153Z,32.70
2023-11-30T07:53:10.132Z,34.10
2023-11-30T07:54:10.141Z,33.50
2023-11-30T07:55:10.046Z,31.60
2023-11-30T07:56:10.017Z,34.10
2023-11-30T07:57:10.002Z,34.00
2023-11-30T07:58:09.958Z,32.30
2023-11-30T07:59:09.934Z,34.40
2023-11-30T08:00:09.955Z,33.90
2023-11-30T08:01:09.872Z,33.30
2023-11-30T08:02:09.851Z,32.20
2023-11-30T08:03:09.867Z,34.70
2023-11-30T08:04:09.888Z,33.20
2023-11-30T08:05:09.757Z,32.50
2023-11-30T08:06:09.731Z,33.80
2023-11-30T08:07:09.708Z,33.20
2023-11-30T08:08:09.673Z,35.40
2023-11-30T08:09:09.745Z,34.40
2023-11-30T08:10:09.624Z,32.50
2023-11-30T08:11:09.608Z,31.00
2023-11-30T08:12:09.577Z,32.50
2023-11-30T08:13:09.520Z,31.70
2023-11-30T08:14:09.498Z,30.90
2023-11-30T08:15:09.496Z,29.60
2023-11-30T08:16:09.448Z,32.30
2023-11-30T08:17:09.412Z,31.30
2023-11-30T08:18:09.466Z,30.80
2023-11-30T08:19:09.397Z,31.10
2023-11-30T08:20:09.317Z,29.00
2023-11-30T08:21:09.305Z,31.20
2023-11-30T08:22:09.257Z,31.30
2023-11-30T08:23:09.224Z,30.20
2023-11-30T08:24:09.220Z,30.50
2023-11-30T08:25:09.175Z,30.80
2023-11-30T08:26:09.146Z,31.50
2023-11-30T08:27:09.133Z,30.90
2023-11-30T08:28:09.078Z,31.30
2023-11-30T08:29:09.055Z,30.90
2023-11-30T08:30:09.088Z,30.30
2023-11-30T08:31:08.999Z,30.70
2023-11-30T08:32:08.974Z,30.30
2023-11-30T08:33:09.048Z,29.70
2023-11-30T08:34:08.907Z,30.30
2023-11-30T08:35:08.910Z,30.90
2023-11-30T08:36:08.889Z,30.60
2023-11-30T08:37:08.824Z,31.10
2023-11-30T08:38:08.791Z,30.10
2023-11-30T08:39:08.805Z,30.00
2023-11-30T08:40:08.789Z,28.80
2023-11-30T08:41:08.699Z,30.20
2023-11-30T08:42:08.718Z,30.70
2023-11-30T08:43:08.642Z,30.50
2023-11-30T08:44:08.614Z,28.40
2023-11-30T08:45:08.612Z,29.00
2023-11-30T08:46:08.658Z,30.10
2023-11-30T08:47:08.539Z,31.20
2023-11-30T08:48:08.573Z,30.80
2023-11-30T08:49:08.469Z,30.20
2023-11-30T08:50:08.437Z,31.20
2023-11-30T08:51:08.491Z,29.80
2023-11-30T08:52:08.376Z,31.00
2023-11-30T08:53:08.353Z,30.70
2023-11-30T08:54:08.354Z,30.00
2023-11-30T08:55:08.313Z,28.40
2023-11-30T08:56:08.268Z,28.60
2023-11-30T08:57:08.240Z,29.50
2023-11-30T08:58:08.205Z,28.40
2023-11-30T08:59:08.208Z,29.60
2023-11-30T09:00:08.175Z,31.30
2023-11-30T09:01:08.113Z,35.40
2023-11-30T09:02:08.136Z,31.90
2023-11-30T09:03:08.098Z,30.50
2023-11-30T09:04:08.075Z,30.50
2023-11-30T09:05:07.999Z,31.40
2023-11-30T09:06:07.990Z,32.20
2023-11-30T09:07:07.965Z,32.80
2023-11-30T09:08:07.911Z,31.80
2023-11-30T09:09:07.934Z,31.60
2023-11-30T09:10:07.873Z,31.40
2023-11-30T09:11:07.825Z,30.50
2023-11-30T09:12:07.828Z,29.80
2023-11-30T09:13:07.773Z,31.80
2023-11-30T09:14:07.743Z,34.10
2023-11-30T09:15:07.755Z,32.50
2023-11-30T09:16:07.712Z,32.80
2023-11-30T09:17:07.659Z,34.90
2023-11-30T09:18:07.702Z,33.00
2023-11-30T09:19:07.600Z,31.70
2023-11-30T09:20:07.562Z,31.30
2023-11-30T09:21:07.582Z,29.60
2023-11-30T09:22:07.509Z,33.20
2023-11-30T09:23:07.489Z,31.70
2023-11-30T09:24:07.495Z,30.50
2023-11-30T09:25:07.417Z,30.50
2023-11-30T09:26:07.393Z,30.70
2023-11-30T09:27:07.395Z,31.10
2023-11-30T09:28:07.333Z,31.40
2023-11-30T09:29:07.450Z,29.70
2023-11-30T09:30:07.285Z,31.20
2023-11-30T09:31:07.397Z,29.30
2023-11-30T09:32:07.231Z,30.10
2023-11-30T09:33:07.241Z,31.50
2023-11-30T09:34:07.157Z,31.40
2023-11-30T09:35:07.182Z,31.60
2023-11-30T09:36:07.159Z,28.70
2023-11-30T09:37:07.074Z,30.40
2023-11-30T09:38:07.040Z,31.50
2023-11-30T09:39:07.035Z,32.00
2023-11-30T09:40:06.972Z,29.20
2023-11-30T09:41:07.012Z,30.40
2023-11-30T09:42:06.934Z,30.00
2023-11-30T09:43:06.893Z,31.30
2023-11-30T09:44:06.864Z,28.80
2023-11-30T09:45:06.862Z,28.30
2023-11-30T09:46:06.848Z,27.60
2023-11-30T09:47:06.779Z,28.20
2023-11-30T09:48:06.824Z,28.50
2023-11-30T09:49:08.507Z,30.60
2023-11-30T09:50:06.684Z,28.80
2023-11-30T09:51:06.679Z,27.40
2023-11-30T09:52:06.663Z,30.20
2023-11-30T09:53:06.598Z,30.30
2023-11-30T09:54:06.598Z,29.70
2023-11-30T09:55:06.582Z,29.00
2023-11-30T09:56:06.510Z,30.00
2023-11-30T09:57:06.528Z,29.70
2023-11-30T09:58:06.452Z,29.30
2023-11-30T09:59:06.424Z,29.80
2023-11-30T10:00:06.430Z,29.40
2023-11-30T10:01:06.399Z,29.60
2023-11-30T10:02:07.703Z,30.70
2023-11-30T10:03:06.437Z,30.20
2023-11-30T10:04:06.348Z,30.70
2023-11-30T10:05:06.246Z,32.00
2023-11-30T10:06:06.242Z,31.50
2023-11-30T10:07:06.192Z,28.70
2023-11-30T10:08:06.156Z,29.30
2023-11-30T10:09:06.153Z,29.20
2023-11-30T10:10:06.100Z,29.40
2023-11-30T10:11:06.110Z,29.50
2023-11-30T10:12:06.108Z,29.10
2023-11-30T10:13:06.019Z,28.60
2023-11-30T10:14:06.001Z,30.50
2023-11-30T10:15:06.077Z,30.40
2023-11-30T10:16:06.006Z,29.80
2023-11-30T10:17:06.015Z,30.30
2023-11-30T10:18:06.079Z,29.20
2023-11-30T10:19:07.971Z,31.10
2023-11-30T10:20:05.819Z,31.60
2023-11-30T10:21:05.786Z,32.00
2023-11-30T10:22:05.751Z,32.30
2023-11-30T10:23:05.729Z,32.50
2023-11-30T10:24:05.725Z,34.10
2023-11-30T10:25:05.671Z,34.80
2023-11-30T10:26:05.629Z,36.00
2023-11-30T10:27:05.676Z,35.50
2023-11-30T10:28:05.575Z,35.00
2023-11-30T10:29:05.561Z,36.40
2023-11-30T10:30:05.602Z,34.50
2023-11-30T10:31:05.507Z,32.00
2023-11-30T10:32:05.458Z,32.70
2023-11-30T10:33:05.609Z,31.20
2023-11-30T10:34:05.532Z,32.50
2023-11-30T10:35:05.422Z,32.30
2023-11-30T10:36:05.380Z,32.70
2023-11-30T10:37:05.317Z,32.50
2023-11-30T10:38:05.288Z,30.80
2023-11-30T10:39:05.284Z,30.50
2023-11-30T10:40:05.243Z,30.90
2023-11-30T10:41:05.204Z,29.90
2023-11-30T10:42:05.189Z,30.20
2023-11-30T10:43:05.160Z,31.40
2023-11-30T10:44:05.110Z,32.50
2023-11-30T10:45:05.151Z,31.20
2023-11-30T10:46:05.050Z,31.70
2023-11-30T10:47:05.026Z,30.40
2023-11-30T10:48:05.066Z,30.30
2023-11-30T10:49:04.987Z,29.90
2023-11-30T10:50:04.931Z,31.30
2023-11-30T10:51:04.930Z,30.60
2023-11-30T10:52:04.874Z,31.00
2023-11-30T10:53:04.843Z,31.20
2023-11-30T10:54:04.823Z,30.40
2023-11-30T10:55:04.789Z,32.50
2023-11-30T10:56:04.751Z,31.30
2023-11-30T10:57:04.724Z,30.50
2023-11-30T10:58:04.694Z,30.60
2023-11-30T10:59:04.696Z,31.20
2023-11-30T11:00:04.642Z,29.70
2023-11-30T11:01:04.678Z,28.60
2023-11-30T11:02:04.733Z,30.70
2023-11-30T11:03:04.624Z,28.10
2023-11-30T11:04:04.593Z,28.80
2023-11-30T11:05:04.498Z,28.50
2023-11-30T11:06:04.461Z,30.40
2023-11-30T11:07:04.443Z,30.80
2023-11-30T11:08:04.415Z,30.20
2023-11-30T11:09:04.387Z,31.50
2023-11-30T11:10:04.410Z,31.20
2023-11-30T11:11:04.331Z,29.90
2023-11-30T11:12:04.287Z,28.80
2023-11-30T11:13:04.270Z,27.70
2023-11-30T11:14:04.231Z,29.20
2023-11-30T11:15:04.236Z,28.50
2023-11-30T11:16:04.454Z,27.30
2023-11-30T11:17:04.167Z,27.90
2023-11-30T11:18:04.234Z,27.90
2023-11-30T11:19:04.173Z,29.30
2023-11-30T11:20:04.070Z,29.20
2023-11-30T11:21:04.048Z,32.40
2023-11-30T11:22:04.014Z,36.10
2023-11-30T11:23:04.148Z,33.30
2023-11-30T11:24:03.952Z,32.60
2023-11-30T11:25:03.929Z,32.00
2023-11-30T11:26:03.898Z,31.40
2023-11-30T11:27:03.868Z,31.70
2023-11-30T11:28:03.941Z,31.10
2023-11-30T11:29:03.808Z,30.40
2023-11-30T11:30:03.836Z,31.80
2023-11-30T11:31:03.993Z,32.00
2023-11-30T11:32:03.857Z,30.70
2023-11-30T11:33:03.714Z,29.20
2023-11-30T11:34:03.682Z,29.80
2023-11-30T11:35:03.639Z,30.10
2023-11-30T11:36:03.617Z,30.50
2023-11-30T11:37:03.594Z,30.30
2023-11-30T11:38:03.551Z,29.80
2023-11-30T11:39:03.522Z,29.40
2023-11-30T11:40:03.538Z,30.80
2023-11-30T11:41:03.471Z,32.70
2023-11-30T11:42:03.429Z,31.70
2023-11-30T11:43:03.407Z,32.20
2023-11-30T11:44:03.449Z,32.60
2023-11-30T11:45:03.467Z,30.30
2023-11-30T11:46:03.450Z,30.20
2023-11-30T11:47:03.334Z,31.40
2023-11-30T11:48:03.284Z,30.90
2023-11-30T11:49:03.232Z,29.00
2023-11-30T11:50:03.203Z,27.70
2023-11-30T11:51:03.170Z,30.00
2023-11-30T11:52:03.163Z,29.20
2023-11-30T11:53:03.115Z,31.20
2023-11-30T11:54:03.089Z,31.00
2023-11-30T11:55:03.072Z,31.90
2023-11-30T11:56:03.043Z,30.40
2023-11-30T11:57:03.001Z,30.40
2023-11-30T11:58:03.065Z,29.30
2023-11-30T11:59:02.938Z,30.10
2023-11-30T12:00:02.915Z,31.00
2023-11-30T12:01:03.047Z,28.00
2023-11-30T12:02:02.971Z,27.60
2023-11-30T12:03:02.860Z,27.20
2023-11-30T12:04:02.882Z,28.00
2023-11-30T12:05:02.771Z,28.70
2023-11-30T12:06:02.737Z,27.80
2023-11-30T12:07:02.715Z,27.30
2023-11-30T12:08:02.687Z,29.20
2023-11-30T12:09:02.668Z,27.00
2023-11-30T12:10:02.630Z,27.70
2023-11-30T12:11:02.596Z,27.80
2023-11-30T12:12:02.562Z,28.80
2023-11-30T12:13:02.547Z,27.80
2023-11-30T12:14:02.579Z,28.80
2023-11-30T12:15:02.478Z,29.80
2023-11-30T12:16:02.662Z,28.10
2023-11-30T12:17:02.441Z,28.80
2023-11-30T12:18:02.439Z,30.00
2023-11-30T12:19:02.391Z,29.90
2023-11-30T12:20:02.333Z,30.20
2023-11-30T12:21:02.319Z,28.90
2023-11-30T12:22:02.273Z,29.10
2023-11-30T12:23:02.325Z,30.70
2023-11-30T12:24:02.216Z,27.80
2023-11-30T12:25:02.193Z,29.70
2023-11-30T12:26:02.155Z,29.10
2023-11-30T12:27:02.128Z,30.30
2023-11-30T12:28:02.107Z,29.40
2023-11-30T12:29:02.076Z,27.90
2023-11-30T12:30:02.047Z,30.80
2023-11-30T12:31:02.016Z,28.70
2023-11-30T12:32:02.133Z,29.90
2023-11-30T12:33:01.976Z,27.60
2023-11-30T12:34:02.016Z,28.40
2023-11-30T12:35:01.939Z,28.00
2023-11-30T12:36:01.895Z,29.90
2023-11-30T12:37:01.953Z,30.50
2023-11-30T12:38:01.820Z,30.10
2023-11-30T12:39:01.784Z,31.50
2023-11-30T12:40:01.863Z,31.90
2023-11-30T12:41:01.735Z,33.20
2023-11-30T12:42:03.569Z,32.80
2023-11-30T12:43:01.687Z,33.00
2023-11-30T12:44:03.517Z,32.90
2023-11-30T12:45:01.607Z,32.90
2023-11-30T12:46:01.649Z,32.60
2023-11-30T12:47:01.554Z,33.80
2023-11-30T12:48:01.541Z,33.90
2023-11-30T12:49:01.533Z,31.80
2023-11-30T12:50:01.516Z,32.40
2023-11-30T12:51:01.462Z,31.80
2023-11-30T12:52:01.411Z,31.30